createdAt,value
2017-02-19T00:00:09.629Z,3.75
2017-02-19T00:01:09.588Z,3.74
2017-02-19T00:02:08.811Z,3.71
2017-02-19T00:03:09.548Z,3.7
2017-02-19T00:04:09.518Z,3.74
2017-02-19T00:05:09.108Z,3.78
2017-02-19T00:06:09.471Z,3.68
2017-02-19T00:07:09.449Z,3.71
2017-02-19T00:08:09.412Z,3.68
2017-02-19T00:09:09.018Z,3.7
2017-02-19T00:10:09.352Z,3.57
2017-02-19T00:11:09.364Z,3.63
2017-02-19T00:12:09.312Z,3.62
2017-02-19T00:13:08.894Z,3.67
2017-02-19T00:14:08.867Z,3.62
2017-02-19T00:15:09.228Z,3.68
2017-02-19T00:16:09.237Z,3.72
2017-02-19T00:17:09.177Z,3.71
2017-02-19T00:18:09.357Z,3.64
2017-02-19T00:19:09.123Z,3.67
2017-02-19T00:20:09.105Z,3.7
2017-02-19T00:21:09.086Z,3.63
2017-02-19T00:22:08.660Z,3.64
2017-02-19T00:23:09.034Z,3.59
2017-02-19T00:24:08.996Z,3.56
2017-02-19T00:25:08.982Z,3.64
2017-02-19T00:26:08.171Z,3.52
2017-02-19T00:27:08.920Z,3.59
2017-02-19T00:28:08.508Z,3.57
2017-02-19T00:29:08.873Z,3.57
2017-02-19T00:30:08.834Z,3.56
2017-02-19T00:31:08.429Z,3.54
2017-02-19T00:32:08.803Z,3.5
2017-02-19T00:33:08.793Z,3.59
2017-02-19T00:34:08.348Z,3.56
2017-02-19T00:35:08.710Z,3.56
2017-02-19T00:36:08.681Z,3.59
2017-02-19T00:37:08.272Z,3.53
2017-02-19T00:38:08.634Z,3.6
2017-02-19T00:39:07.830Z,3.56
2017-02-19T00:40:08.587Z,3.59
2017-02-19T00:41:08.564Z,3.56
2017-02-19T00:42:08.189Z,3.56
2017-02-19T00:43:08.500Z,3.53
2017-02-19T00:44:08.472Z,3.56
2017-02-19T00:45:08.438Z,3.56
2017-02-19T00:46:08.426Z,3.54
2017-02-19T00:47:08.027Z,3.52
2017-02-19T00:48:08.374Z,3.6
2017-02-19T00:49:08.342Z,3.59
2017-02-19T00:50:08.312Z,3.45
2017-02-19T00:51:08.295Z,3.49
2017-02-19T00:52:08.283Z,3.45
2017-02-19T00:53:07.842Z,3.44
2017-02-19T00:54:07.828Z,3.5
2017-02-19T00:55:08.195Z,3.49
2017-02-19T00:56:08.160Z,3.49
2017-02-19T00:57:08.129Z,3.37
2017-02-19T00:58:08.133Z,3.39
2017-02-19T00:59:08.086Z,3.35
2017-02-19T01:00:07.688Z,3.39
2017-02-19T01:01:08.026Z,3.44
2017-02-19T01:02:08.004Z,3.42
2017-02-19T01:03:07.991Z,3.35
2017-02-19T01:04:07.573Z,3.31
2017-02-19T01:05:07.546Z,3.37
2017-02-19T01:06:07.903Z,3.25
2017-02-19T01:07:07.494Z,3.26
2017-02-19T01:08:07.897Z,3.33
2017-02-19T01:09:07.439Z,3.28
2017-02-19T01:10:07.811Z,3.28
2017-02-19T01:11:07.388Z,3.28
2017-02-19T01:12:07.350Z,3.26
2017-02-19T01:13:07.354Z,3.16
2017-02-19T01:14:07.691Z,3.28
2017-02-19T01:15:07.272Z,3.17
2017-02-19T01:16:07.633Z,3.22
2017-02-19T01:17:07.607Z,3.1
2017-02-19T01:18:07.588Z,3.19
2017-02-19T01:19:07.191Z,3.22
2017-02-19T01:20:07.559Z,3.1
2017-02-19T01:21:07.518Z,3.16
2017-02-19T01:22:06.713Z,3.15
2017-02-19T01:23:07.466Z,3.1
2017-02-19T01:24:07.480Z,3.1
2017-02-19T01:25:07.017Z,3.13
2017-02-19T01:26:06.994Z,3.04
2017-02-19T01:27:07.370Z,3.1
2017-02-19T01:28:06.949Z,3.01
2017-02-19T01:29:07.303Z,2.97
2017-02-19T01:30:07.266Z,3.01
2017-02-19T01:31:07.266Z,3.02
2017-02-19T01:32:07.232Z,3.01
2017-02-19T01:33:06.822Z,2.95
2017-02-19T01:34:07.179Z,3.04
2017-02-19T01:35:06.755Z,2.98
2017-02-19T01:36:06.342Z,3.08
2017-02-19T01:37:07.098Z,2.9
2017-02-19T01:38:07.074Z,2.97
2017-02-19T01:39:06.652Z,2.99
2017-02-19T01:40:07.015Z,2.99
2017-02-19T01:41:06.596Z,2.92
2017-02-19T01:42:06.962Z,2.97
2017-02-19T01:43:06.934Z,2.95
2017-02-19T01:44:06.913Z,2.95
2017-02-19T01:45:06.495Z,2.97
2017-02-19T01:46:06.462Z,2.97
2017-02-19T01:47:06.830Z,2.97
2017-02-19T01:48:06.797Z,2.92
2017-02-19T01:49:06.783Z,2.95
2017-02-19T01:50:06.749Z,2.97
2017-02-19T01:51:06.343Z,2.98
2017-02-19T01:52:06.720Z,2.95
2017-02-19T01:53:06.677Z,2.92
2017-02-19T01:54:06.642Z,2.9
2017-02-19T01:55:06.225Z,2.9
2017-02-19T01:56:06.591Z,2.92
2017-02-19T01:57:06.570Z,2.94
2017-02-19T01:58:06.535Z,2.94
2017-02-19T01:59:06.562Z,2.87
2017-02-19T02:00:06.098Z,2.9
2017-02-19T02:01:06.457Z,2.83
2017-02-19T02:02:06.433Z,2.81
2017-02-19T02:03:06.401Z,2.95
2017-02-19T02:04:05.607Z,2.92
2017-02-19T02:05:05.972Z,2.81
2017-02-19T02:06:06.341Z,2.81
2017-02-19T02:07:05.982Z,2.87
2017-02-19T02:08:06.291Z,2.8
2017-02-19T02:09:06.255Z,2.92
2017-02-19T02:10:06.211Z,2.94
2017-02-19T02:11:05.439Z,2.86
2017-02-19T02:12:05.783Z,2.89
2017-02-19T02:13:05.758Z,2.87
2017-02-19T02:14:06.123Z,2.99
2017-02-19T02:15:06.102Z,2.89
2017-02-19T02:16:06.074Z,2.97
2017-02-19T02:17:06.035Z,2.87
2017-02-19T02:18:06.019Z,2.9
2017-02-19T02:19:05.973Z,2.89
2017-02-19T02:20:05.960Z,2.99
2017-02-19T02:21:05.929Z,2.92
2017-02-19T02:22:05.910Z,2.99
2017-02-19T02:23:05.494Z,2.98
2017-02-19T02:24:05.856Z,2.99
2017-02-19T02:25:05.841Z,2.9
2017-02-19T02:26:05.867Z,2.95
2017-02-19T02:27:05.380Z,3.04
2017-02-19T02:28:05.752Z,3.07
2017-02-19T02:29:05.709Z,2.99
2017-02-19T02:30:05.692Z,3.04
2017-02-19T02:31:05.677Z,3.05
2017-02-19T02:32:05.247Z,3.07
2017-02-19T02:33:05.604Z,3.05
2017-02-19T02:34:05.595Z,3.07
2017-02-19T02:35:05.204Z,3.07
2017-02-19T02:36:05.531Z,3.1
2017-02-19T02:37:05.523Z,3.13
2017-02-19T02:38:05.488Z,3.1
2017-02-19T02:39:05.456Z,3.12
2017-02-19T02:40:05.045Z,3.13
2017-02-19T02:41:04.682Z,3.13
2017-02-19T02:42:05.000Z,3.13
2017-02-19T02:43:04.962Z,3.12
2017-02-19T02:44:05.341Z,3.25
2017-02-19T02:45:05.295Z,3.2
2017-02-19T02:46:05.298Z,3.2
2017-02-19T02:47:05.253Z,3.25
2017-02-19T02:48:05.214Z,3.26
2017-02-19T02:49:04.802Z,3.3
2017-02-19T02:50:05.171Z,3.25
2017-02-19T02:51:04.755Z,3.31
2017-02-19T02:52:05.257Z,3.23
2017-02-19T02:53:05.084Z,3.37
2017-02-19T02:54:05.087Z,3.31
2017-02-19T02:55:05.028Z,3.23
2017-02-19T02:56:05.010Z,3.28
2017-02-19T02:57:04.991Z,3.35
2017-02-19T02:58:04.188Z,3.34
2017-02-19T02:59:04.925Z,3.35
2017-02-19T03:00:04.525Z,3.37
2017-02-19T03:01:04.875Z,3.44
2017-02-19T03:02:04.843Z,3.42
2017-02-19T03:03:04.821Z,3.41
2017-02-19T03:04:04.406Z,3.37
2017-02-19T03:05:04.785Z,3.5
2017-02-19T03:06:04.745Z,3.45
2017-02-19T03:07:04.362Z,3.46
2017-02-19T03:08:04.698Z,3.49
2017-02-19T03:09:04.668Z,3.5
2017-02-19T03:10:04.651Z,3.49
2017-02-19T03:11:04.618Z,3.49
2017-02-19T03:12:04.637Z,3.53
2017-02-19T03:13:04.560Z,3.46
2017-02-19T03:14:04.535Z,3.46
2017-02-19T03:15:04.129Z,3.44
2017-02-19T03:16:04.122Z,3.53
2017-02-19T03:17:04.478Z,3.45
2017-02-19T03:18:04.036Z,3.5
2017-02-19T03:19:04.407Z,3.49
2017-02-19T03:20:04.388Z,3.49
2017-02-19T03:21:04.386Z,3.5
2017-02-19T03:22:04.338Z,3.56
2017-02-19T03:23:03.929Z,3.49
2017-02-19T03:24:04.277Z,3.52
2017-02-19T03:25:04.263Z,3.63
2017-02-19T03:26:04.220Z,3.45
2017-02-19T03:27:04.193Z,3.52
2017-02-19T03:28:04.166Z,3.54
2017-02-19T03:29:04.142Z,3.6
2017-02-19T03:30:03.735Z,3.6
2017-02-19T03:31:04.104Z,3.52
2017-02-19T03:32:04.117Z,3.6
2017-02-19T03:33:04.038Z,3.57
2017-02-19T03:34:04.029Z,3.62
2017-02-19T03:35:03.593Z,3.64
2017-02-19T03:36:03.955Z,3.57
2017-02-19T03:37:04.211Z,3.7
2017-02-19T03:38:03.144Z,3.67
2017-02-19T03:39:03.882Z,3.68
2017-02-19T03:40:03.857Z,3.68
2017-02-19T03:41:03.833Z,3.68
2017-02-19T03:42:03.801Z,3.67
2017-02-19T03:43:03.493Z,3.7
2017-02-19T03:44:02.989Z,3.67
2017-02-19T03:45:03.346Z,3.7
2017-02-19T03:46:03.699Z,3.63
2017-02-19T03:47:03.696Z,3.68
2017-02-19T03:48:03.660Z,3.7
2017-02-19T03:49:03.632Z,3.7
2017-02-19T03:50:03.630Z,3.7
2017-02-19T03:51:03.185Z,3.7
2017-02-19T03:52:03.555Z,3.59
2017-02-19T03:53:03.509Z,3.63
2017-02-19T03:54:03.501Z,3.67
2017-02-19T03:55:03.088Z,3.71
2017-02-19T03:56:03.437Z,3.63
2017-02-19T03:57:02.646Z,3.67
2017-02-19T03:58:02.659Z,3.7
2017-02-19T03:59:03.385Z,3.68
2017-02-19T04:00:03.351Z,3.68
2017-02-19T04:01:03.319Z,3.67
2017-02-19T04:02:03.284Z,3.67
2017-02-19T04:03:03.276Z,3.63
2017-02-19T04:04:03.246Z,3.68
2017-02-19T04:05:03.234Z,3.72
2017-02-19T04:06:03.182Z,3.72
2017-02-19T04:07:03.163Z,3.7
2017-02-19T04:08:03.135Z,3.67
2017-02-19T04:09:03.105Z,3.68
2017-02-19T04:10:03.123Z,3.63
2017-02-19T04:11:03.065Z,3.56
2017-02-19T04:12:03.029Z,3.67
2017-02-19T04:13:02.615Z,3.59
2017-02-19T04:14:02.984Z,3.59
2017-02-19T04:15:02.566Z,3.56
2017-02-19T04:16:02.926Z,3.53
2017-02-19T04:17:02.901Z,3.56
2017-02-19T04:18:02.928Z,3.56
2017-02-19T04:19:02.846Z,3.59
2017-02-19T04:20:02.824Z,3.53
2017-02-19T04:21:02.793Z,3.49
2017-02-19T04:22:02.376Z,3.52
2017-02-19T04:23:02.737Z,3.44
2017-02-19T04:24:02.327Z,3.45
2017-02-19T04:25:02.690Z,3.5
2017-02-19T04:26:02.289Z,3.46
2017-02-19T04:27:02.632Z,3.5
2017-02-19T04:28:02.619Z,3.53
2017-02-19T04:29:02.200Z,3.45
2017-02-19T04:30:02.195Z,3.5
2017-02-19T04:31:02.540Z,3.53
2017-02-19T04:32:02.502Z,3.49
2017-02-19T04:33:02.479Z,3.45
2017-02-19T04:34:02.456Z,3.45
2017-02-19T04:35:02.433Z,3.45
2017-02-19T04:36:02.431Z,3.45
2017-02-19T04:37:02.382Z,3.5
2017-02-19T04:38:02.349Z,3.45
2017-02-19T04:39:02.334Z,3.52
2017-02-19T04:40:02.318Z,3.41
2017-02-19T04:41:02.285Z,3.5
2017-02-19T04:42:02.242Z,3.46
2017-02-19T04:43:01.845Z,3.44
2017-02-19T04:44:02.189Z,3.45
2017-02-19T04:45:02.160Z,3.44
2017-02-19T04:46:02.163Z,3.52
2017-02-19T04:47:02.187Z,3.52
2017-02-19T04:48:02.089Z,3.53
2017-02-19T04:49:02.072Z,3.41
2017-02-19T04:50:02.038Z,3.46
2017-02-19T04:51:01.634Z,3.45
2017-02-19T04:52:01.986Z,3.44
2017-02-19T04:53:01.957Z,3.42
2017-02-19T04:54:01.943Z,3.49
2017-02-19T04:55:01.925Z,3.49
2017-02-19T04:56:01.915Z,3.53
2017-02-19T04:57:01.868Z,3.53
2017-02-19T04:58:01.984Z,3.39
2017-02-19T04:59:01.800Z,3.37
2017-02-19T05:00:01.786Z,3.39
2017-02-19T05:01:01.749Z,3.34
2017-02-19T05:02:01.728Z,3.52
2017-02-19T05:03:01.703Z,3.46
2017-02-19T05:04:01.667Z,3.34
2017-02-19T05:05:01.665Z,3.45
2017-02-19T05:06:01.629Z,3.53
2017-02-19T05:07:01.599Z,3.53
2017-02-19T05:08:01.569Z,3.37
2017-02-19T05:09:01.559Z,3.49
2017-02-19T05:10:01.520Z,3.49
2017-02-19T05:11:01.101Z,3.37
2017-02-19T05:12:01.465Z,3.41
2017-02-19T05:13:01.515Z,3.39
2017-02-19T05:14:01.422Z,3.42
2017-02-19T05:15:01.412Z,3.44
2017-02-19T05:16:01.361Z,3.35
2017-02-19T05:17:01.359Z,3.39
2017-02-19T05:18:00.970Z,3.39
2017-02-19T05:19:01.295Z,3.3
2017-02-19T05:20:01.308Z,3.31
2017-02-19T05:21:01.237Z,3.31
2017-02-19T05:22:01.203Z,3.31
2017-02-19T05:23:01.182Z,3.41
2017-02-19T05:24:01.151Z,3.42
2017-02-19T05:25:01.124Z,3.41
2017-02-19T05:26:01.095Z,3.42
2017-02-19T05:27:01.088Z,3.37
2017-02-19T05:28:00.664Z,3.35
2017-02-19T05:29:01.028Z,3.5
2017-02-19T05:30:00.990Z,3.52
2017-02-19T05:31:00.981Z,3.45
2017-02-19T05:32:00.939Z,3.57
2017-02-19T05:33:00.911Z,3.56
2017-02-19T05:34:00.895Z,3.5
2017-02-19T05:35:00.883Z,3.5
2017-02-19T05:36:00.845Z,3.52
2017-02-19T05:37:00.827Z,3.52
2017-02-19T05:38:00.787Z,3.53
2017-02-19T05:39:00.766Z,3.53
2017-02-19T05:40:00.732Z,3.46
2017-02-19T05:41:00.320Z,3.6
2017-02-19T05:42:00.689Z,3.59
2017-02-19T05:43:00.662Z,3.54
2017-02-19T05:44:00.633Z,3.59
2017-02-19T05:45:00.605Z,3.6
2017-02-19T05:46:00.493Z,3.62
2017-02-19T05:47:00.562Z,3.59
2017-02-19T05:48:00.546Z,3.6
2017-02-19T05:49:00.508Z,3.62
2017-02-19T05:50:00.471Z,3.57
2017-02-19T05:51:00.498Z,3.56
2017-02-19T05:52:00.427Z,3.7
2017-02-19T05:53:00.393Z,3.68
2017-02-19T05:53:59.981Z,3.7
2017-02-19T05:55:00.345Z,3.7
2017-02-19T05:56:00.323Z,3.67
2017-02-19T05:57:00.299Z,3.67
2017-02-19T05:58:00.269Z,3.7
2017-02-19T05:58:59.864Z,3.64
2017-02-19T06:00:00.215Z,3.67
2017-02-19T06:01:00.197Z,3.71
2017-02-19T06:02:00.159Z,3.7
2017-02-19T06:03:00.131Z,3.67
2017-02-19T06:04:00.131Z,3.68
2017-02-19T06:05:00.089Z,3.72
2017-02-19T06:06:00.073Z,3.7
2017-02-19T06:07:00.081Z,3.62
2017-02-19T06:08:00.004Z,3.72
2017-02-19T06:09:00.005Z,3.72
2017-02-19T06:09:59.954Z,3.72
2017-02-19T06:10:59.982Z,3.71
2017-02-19T06:11:59.898Z,3.71
2017-02-19T06:12:59.881Z,3.71
2017-02-19T06:13:59.909Z,3.75
2017-02-19T06:14:59.828Z,3.84
2017-02-19T06:15:59.790Z,3.8
2017-02-19T06:16:59.787Z,3.82
2017-02-19T06:17:59.753Z,3.75
2017-02-19T06:18:59.732Z,3.88
2017-02-19T06:19:59.695Z,3.78
2017-02-19T06:20:59.676Z,3.78
2017-02-19T06:21:59.640Z,3.81
2017-02-19T06:22:59.628Z,3.82
2017-02-19T06:23:59.618Z,3.84
2017-02-19T06:24:59.216Z,3.78
2017-02-19T06:25:59.564Z,3.82
2017-02-19T06:26:59.513Z,3.86
2017-02-19T06:27:59.517Z,3.81
2017-02-19T06:28:59.481Z,3.86
2017-02-19T06:29:59.429Z,3.92
2017-02-19T06:30:59.428Z,3.92
2017-02-19T06:31:59.396Z,3.9
2017-02-19T06:32:59.355Z,3.9
2017-02-19T06:33:59.341Z,3.9
2017-02-19T06:34:59.315Z,3.89
2017-02-19T06:35:59.284Z,3.89
2017-02-19T06:36:59.260Z,3.9
2017-02-19T06:37:59.233Z,3.86
2017-02-19T06:38:59.231Z,3.98
2017-02-19T06:39:59.179Z,3.9
2017-02-19T06:40:59.167Z,3.95
2017-02-19T06:41:59.158Z,3.88
2017-02-19T06:42:59.109Z,3.89
2017-02-19T06:43:59.083Z,4
2017-02-19T06:44:59.073Z,4.06
2017-02-19T06:45:59.031Z,4
2017-02-19T06:46:58.612Z,3.9
2017-02-19T06:47:59.001Z,4.04
2017-02-19T06:48:59.010Z,3.89
2017-02-19T06:49:58.934Z,3.84
2017-02-19T06:50:58.910Z,4.06
2017-02-19T06:51:58.876Z,4.02
2017-02-19T06:52:58.861Z,4
2017-02-19T06:53:58.822Z,4.02
2017-02-19T06:54:58.798Z,4.04
2017-02-19T06:55:58.826Z,4.1
2017-02-19T06:56:58.738Z,4.04
2017-02-19T06:57:58.332Z,3.99
2017-02-19T06:58:58.688Z,4.11
2017-02-19T06:59:58.678Z,4.14
2017-02-19T07:00:58.639Z,4.13
2017-02-19T07:01:58.646Z,4.14
2017-02-19T07:02:58.601Z,4.2
2017-02-19T07:03:58.573Z,4.17
2017-02-19T07:04:58.537Z,4.13
2017-02-19T07:05:58.505Z,4.1
2017-02-19T07:06:58.514Z,4.11
2017-02-19T07:07:58.463Z,4.14
2017-02-19T07:08:58.466Z,4.25
2017-02-19T07:09:58.434Z,4.16
2017-02-19T07:10:57.996Z,4.21
2017-02-19T07:11:57.976Z,4.16
2017-02-19T07:12:58.348Z,4.16
2017-02-19T07:13:58.509Z,4.17
2017-02-19T07:14:57.907Z,4.21
2017-02-19T07:15:58.253Z,4.28
2017-02-19T07:16:58.245Z,4.25
2017-02-19T07:17:58.208Z,4.29
2017-02-19T07:18:58.184Z,4.32
2017-02-19T07:19:58.152Z,4.36
2017-02-19T07:20:58.181Z,4.42
2017-02-19T07:21:58.114Z,4.36
2017-02-19T07:22:58.078Z,4.36
2017-02-19T07:23:58.049Z,4.39
2017-02-19T07:24:58.250Z,4.5
2017-02-19T07:25:57.618Z,4.46
2017-02-19T07:26:57.983Z,4.51
2017-02-19T07:27:57.957Z,4.54
2017-02-19T07:28:57.925Z,4.54
2017-02-19T07:29:57.522Z,4.65
2017-02-19T07:30:57.492Z,4.54
2017-02-19T07:31:57.853Z,4.59
2017-02-19T07:32:57.822Z,4.61
2017-02-19T07:33:57.799Z,4.57
2017-02-19T07:34:57.783Z,4.61
2017-02-19T07:35:57.751Z,4.74
2017-02-19T07:36:57.742Z,4.67
2017-02-19T07:37:57.704Z,4.74
2017-02-19T07:38:57.675Z,4.8
2017-02-19T07:39:57.653Z,4.83
2017-02-19T07:40:57.636Z,4.91
2017-02-19T07:41:57.611Z,4.94
2017-02-19T07:42:57.586Z,4.97
2017-02-19T07:43:57.544Z,5.01
2017-02-19T07:44:57.787Z,5.05
2017-02-19T07:45:57.557Z,4.99
2017-02-19T07:46:57.481Z,5.19
2017-02-19T07:47:57.496Z,5.05
2017-02-19T07:48:57.420Z,5.06
2017-02-19T07:49:57.404Z,5.17
2017-02-19T07:50:57.385Z,5.22
2017-02-19T07:51:57.349Z,5.23
2017-02-19T07:52:57.333Z,5.2
2017-02-19T07:53:57.300Z,5.24
2017-02-19T07:54:57.279Z,5.23
2017-02-19T07:55:57.255Z,5.23
2017-02-19T07:56:57.221Z,5.27
2017-02-19T07:57:57.207Z,5.22
2017-02-19T07:58:57.190Z,5.3
2017-02-19T07:59:57.159Z,5.2
2017-02-19T08:00:57.136Z,5.27
2017-02-19T08:01:57.101Z,5.27
2017-02-19T08:02:57.087Z,5.27
2017-02-19T08:03:57.066Z,5.32
2017-02-19T08:04:57.034Z,5.45
2017-02-19T08:05:57.005Z,5.44
2017-02-19T08:06:56.992Z,5.47
2017-02-19T08:07:56.961Z,5.38
2017-02-19T08:08:56.572Z,5.45
2017-02-19T08:09:56.525Z,5.38
2017-02-19T08:10:56.500Z,5.49
2017-02-19T08:11:56.923Z,5.37
2017-02-19T08:12:56.840Z,5.37
2017-02-19T08:13:56.807Z,5.44
2017-02-19T08:14:56.403Z,5.38
2017-02-19T08:15:56.786Z,5.42
2017-02-19T08:16:56.798Z,5.38
2017-02-19T08:17:56.716Z,5.45
2017-02-19T08:18:56.696Z,5.41
2017-02-19T08:19:56.665Z,5.4
2017-02-19T08:20:56.645Z,5.37
2017-02-19T08:21:56.616Z,5.4
2017-02-19T08:22:56.601Z,5.44
2017-02-19T08:23:56.568Z,5.33
2017-02-19T08:24:56.539Z,5.35
2017-02-19T08:25:56.524Z,5.4
2017-02-19T08:26:56.740Z,5.42
2017-02-19T08:27:56.490Z,5.42
2017-02-19T08:28:56.443Z,5.42
2017-02-19T08:29:56.418Z,5.44
2017-02-19T08:30:56.393Z,5.49
2017-02-19T08:31:55.982Z,5.41
2017-02-19T08:32:56.343Z,5.52
2017-02-19T08:33:55.606Z,5.52
2017-02-19T08:34:55.911Z,5.52
2017-02-19T08:35:56.268Z,5.67
2017-02-19T08:36:56.242Z,5.66
2017-02-19T08:37:56.236Z,5.66
2017-02-19T08:38:56.200Z,5.8
2017-02-19T08:39:56.179Z,5.7
2017-02-19T08:40:56.165Z,5.75
2017-02-19T08:41:56.127Z,5.81
2017-02-19T08:42:56.122Z,5.78
2017-02-19T08:43:56.096Z,5.9
2017-02-19T08:44:56.053Z,5.92
2017-02-19T08:45:56.034Z,5.9
2017-02-19T08:46:56.023Z,5.85
2017-02-19T08:47:55.982Z,5.84
2017-02-19T08:48:55.570Z,5.92
2017-02-19T08:49:55.931Z,5.87
2017-02-19T08:50:55.909Z,5.92
2017-02-19T08:51:55.896Z,5.88
2017-02-19T08:52:55.867Z,5.87
2017-02-19T08:53:55.851Z,5.95
2017-02-19T08:54:55.862Z,5.98
2017-02-19T08:55:55.835Z,5.92
2017-02-19T08:56:55.778Z,5.92
2017-02-19T08:57:55.734Z,5.92
2017-02-19T08:58:55.737Z,5.96
2017-02-19T08:59:55.698Z,5.99
2017-02-19T09:00:54.892Z,5.96
2017-02-19T09:01:55.254Z,5.96
2017-02-19T09:02:55.627Z,5.95
2017-02-19T09:03:55.592Z,5.93
2017-02-19T09:04:55.576Z,5.93
2017-02-19T09:05:55.553Z,5.93
2017-02-19T09:06:55.524Z,6.01
2017-02-19T09:07:55.501Z,5.99
2017-02-19T09:08:55.465Z,6.05
2017-02-19T09:09:55.454Z,5.96
2017-02-19T09:10:55.421Z,5.98
2017-02-19T09:11:55.010Z,5.95
2017-02-19T09:12:55.381Z,6.03
2017-02-19T09:13:55.341Z,6.02
2017-02-19T09:14:55.324Z,6.02
2017-02-19T09:15:55.299Z,6.02
2017-02-19T09:16:55.298Z,6.03
2017-02-19T09:17:55.262Z,6.03
2017-02-19T09:18:55.234Z,6.08
2017-02-19T09:19:55.223Z,6.11
2017-02-19T09:20:55.199Z,6.05
2017-02-19T09:21:55.209Z,6.1
2017-02-19T09:22:54.749Z,6.05
2017-02-19T09:23:55.108Z,6.14
2017-02-19T09:24:55.080Z,6.25
2017-02-19T09:25:55.051Z,6.25
2017-02-19T09:26:55.080Z,6.19
2017-02-19T09:27:55.046Z,6.17
2017-02-19T09:28:54.991Z,6.28
2017-02-19T09:29:54.963Z,6.25
2017-02-19T09:30:54.999Z,6.28
2017-02-19T09:31:54.919Z,6.32
2017-02-19T09:32:54.515Z,6.42
2017-02-19T09:33:54.877Z,6.38
2017-02-19T09:34:54.842Z,6.45
2017-02-19T09:35:54.839Z,6.39
2017-02-19T09:36:54.804Z,6.53
2017-02-19T09:37:54.771Z,6.58
2017-02-19T09:38:54.764Z,6.57
2017-02-19T09:39:54.719Z,6.54
2017-02-19T09:40:54.712Z,6.57
2017-02-19T09:41:54.685Z,6.58
2017-02-19T09:42:54.656Z,6.57
2017-02-19T09:43:54.678Z,6.54
2017-02-19T09:44:54.607Z,6.55
2017-02-19T09:45:54.627Z,6.45
2017-02-19T09:46:54.173Z,6.53
2017-02-19T09:47:54.154Z,6.53
2017-02-19T09:48:54.511Z,6.55
2017-02-19T09:49:54.480Z,6.58
2017-02-19T09:50:54.454Z,6.63
2017-02-19T09:51:54.042Z,6.64
2017-02-19T09:52:54.434Z,6.63
2017-02-19T09:53:54.403Z,6.65
2017-02-19T09:54:54.360Z,6.75
2017-02-19T09:55:54.344Z,6.76
2017-02-19T09:56:54.322Z,6.79
2017-02-19T09:57:54.299Z,6.86
2017-02-19T09:58:53.895Z,6.91
2017-02-19T09:59:54.247Z,6.91
2017-02-19T10:00:54.218Z,6.91
2017-02-19T10:01:54.200Z,6.87
2017-02-19T10:02:54.194Z,6.93
2017-02-19T10:03:54.156Z,6.9
2017-02-19T10:04:53.749Z,6.9
2017-02-19T10:05:54.108Z,6.97
2017-02-19T10:06:54.082Z,6.9
2017-02-19T10:07:54.065Z,6.94
2017-02-19T10:08:54.019Z,6.9
2017-02-19T10:09:54.292Z,6.93
2017-02-19T10:10:53.999Z,7.04
2017-02-19T10:11:53.967Z,6.94
2017-02-19T10:12:53.939Z,6.94
2017-02-19T10:13:53.905Z,6.89
2017-02-19T10:14:53.499Z,7.01
2017-02-19T10:15:53.872Z,7.08
2017-02-19T10:16:53.851Z,7.12
2017-02-19T10:17:53.894Z,7.07
2017-02-19T10:18:53.411Z,7.18
2017-02-19T10:19:53.775Z,7.15
2017-02-19T10:20:53.364Z,7.14
2017-02-19T10:21:53.760Z,7.14
2017-02-19T10:22:53.729Z,7.23
2017-02-19T10:23:53.802Z,7.26
2017-02-19T10:24:53.654Z,7.29
2017-02-19T10:25:53.255Z,7.37
2017-02-19T10:26:53.613Z,7.32
2017-02-19T10:27:53.227Z,7.39
2017-02-19T10:28:53.575Z,7.36
2017-02-19T10:29:53.548Z,7.41
2017-02-19T10:30:53.136Z,7.37
2017-02-19T10:31:53.505Z,7.39
2017-02-19T10:32:53.515Z,7.44
2017-02-19T10:33:53.464Z,7.52
2017-02-19T10:34:53.452Z,7.54
2017-02-19T10:35:53.402Z,7.45
2017-02-19T10:36:53.006Z,7.44
2017-02-19T10:37:52.965Z,7.47
2017-02-19T10:38:52.948Z,7.45
2017-02-19T10:39:53.314Z,7.5
2017-02-19T10:40:53.276Z,7.42
2017-02-19T10:41:52.882Z,7.44
2017-02-19T10:42:53.236Z,7.48
2017-02-19T10:43:53.224Z,7.5
2017-02-19T10:44:53.207Z,7.47
2017-02-19T10:45:53.179Z,7.45
2017-02-19T10:46:53.164Z,7.45
2017-02-19T10:47:52.740Z,7.45
2017-02-19T10:48:53.103Z,7.48
2017-02-19T10:49:52.697Z,7.41
2017-02-19T10:50:53.072Z,7.41
2017-02-19T10:51:53.032Z,7.47
2017-02-19T10:52:53.009Z,7.34
2017-02-19T10:53:52.992Z,7.37
2017-02-19T10:54:52.582Z,7.36
2017-02-19T10:55:52.943Z,7.33
2017-02-19T10:56:52.923Z,7.34
2017-02-19T10:57:52.946Z,7.3
2017-02-19T10:58:52.878Z,7.23
2017-02-19T10:59:52.482Z,7.23
2017-02-19T11:00:52.824Z,7.26
2017-02-19T11:01:52.406Z,7.27
2017-02-19T11:02:52.788Z,7.26
2017-02-19T11:03:52.772Z,7.18
2017-02-19T11:04:52.354Z,7.18
2017-02-19T11:05:52.324Z,7.12
2017-02-19T11:06:52.668Z,7.14
2017-02-19T11:07:52.656Z,7.11
2017-02-19T11:08:52.251Z,7.09
2017-02-19T11:09:52.642Z,7.05
2017-02-19T11:10:52.590Z,7.11
2017-02-19T11:11:52.605Z,7
2017-02-19T11:12:52.545Z,7.04
2017-02-19T11:13:52.521Z,7.08
2017-02-19T11:14:52.492Z,6.96
2017-02-19T11:15:52.107Z,6.97
2017-02-19T11:16:52.495Z,6.97
2017-02-19T11:17:52.485Z,7
2017-02-19T11:18:52.018Z,6.97
2017-02-19T11:19:52.370Z,6.91
2017-02-19T11:20:52.554Z,6.96
2017-02-19T11:21:52.390Z,7.01
2017-02-19T11:22:52.321Z,6.9
2017-02-19T11:23:52.277Z,6.9
2017-02-19T11:24:52.261Z,6.9
2017-02-19T11:25:52.247Z,6.87
2017-02-19T11:26:52.213Z,6.9
2017-02-19T11:27:52.182Z,6.82
2017-02-19T11:28:51.781Z,6.89
2017-02-19T11:29:52.207Z,6.76
2017-02-19T11:30:51.775Z,6.79
2017-02-19T11:31:52.092Z,6.81
2017-02-19T11:32:52.074Z,6.75
2017-02-19T11:33:52.053Z,6.73
2017-02-19T11:34:52.019Z,6.78
2017-02-19T11:35:52.000Z,6.76
2017-02-19T11:36:51.976Z,6.73
2017-02-19T11:37:51.959Z,6.65
2017-02-19T11:38:51.918Z,6.71
2017-02-19T11:39:51.898Z,6.64
2017-02-19T11:40:51.886Z,6.69
2017-02-19T11:41:51.850Z,6.63
2017-02-19T11:42:51.828Z,6.63
2017-02-19T11:43:51.796Z,6.58
2017-02-19T11:44:51.772Z,6.58
2017-02-19T11:45:51.748Z,6.58
2017-02-19T11:46:51.721Z,6.61
2017-02-19T11:47:51.365Z,6.6
2017-02-19T11:48:51.685Z,6.61
2017-02-19T11:49:51.657Z,6.54
2017-02-19T11:50:51.685Z,6.63
2017-02-19T11:51:51.621Z,6.58
2017-02-19T11:52:51.203Z,6.54
2017-02-19T11:53:51.564Z,6.51
2017-02-19T11:54:51.540Z,6.53
2017-02-19T11:55:51.522Z,6.55
2017-02-19T11:56:51.942Z,6.53
2017-02-19T11:57:51.511Z,6.58
2017-02-19T11:58:51.435Z,6.63
2017-02-19T11:59:51.418Z,6.65
2017-02-19T12:00:51.404Z,6.55
2017-02-19T12:01:51.378Z,6.54
2017-02-19T12:02:50.981Z,6.57
2017-02-19T12:03:51.319Z,6.58
2017-02-19T12:04:51.287Z,6.61
2017-02-19T12:05:51.284Z,6.58
2017-02-19T12:06:51.287Z,6.55
2017-02-19T12:07:50.831Z,6.54
2017-02-19T12:08:51.200Z,6.55
2017-02-19T12:09:51.191Z,6.61
2017-02-19T12:10:51.143Z,6.57
2017-02-19T12:11:51.153Z,6.57
2017-02-19T12:12:51.108Z,6.58
2017-02-19T12:13:51.084Z,6.53
2017-02-19T12:14:51.064Z,6.54
2017-02-19T12:15:51.040Z,6.55
2017-02-19T12:16:50.996Z,6.5
2017-02-19T12:17:50.982Z,6.43
2017-02-19T12:18:51.014Z,6.51
2017-02-19T12:19:50.939Z,6.43
2017-02-19T12:20:50.904Z,6.38
2017-02-19T12:21:50.500Z,6.4
2017-02-19T12:22:51.372Z,6.32
2017-02-19T12:23:50.876Z,6.24
2017-02-19T12:24:50.807Z,6.25
2017-02-19T12:25:50.779Z,6.25
2017-02-19T12:26:50.774Z,6.32
2017-02-19T12:27:50.352Z,6.25
2017-02-19T12:28:50.714Z,6.35
2017-02-19T12:29:50.695Z,6.33
2017-02-19T12:30:50.695Z,6.3
2017-02-19T12:31:50.638Z,6.28
2017-02-19T12:32:50.617Z,6.33
2017-02-19T12:33:50.598Z,6.36
2017-02-19T12:34:50.178Z,6.39
2017-02-19T12:35:50.557Z,6.39
2017-02-19T12:36:50.517Z,6.3
2017-02-19T12:37:50.493Z,6.33
2017-02-19T12:38:50.649Z,6.32
2017-02-19T12:39:50.446Z,6.32
2017-02-19T12:40:50.438Z,6.32
2017-02-19T12:41:50.017Z,6.27
2017-02-19T12:42:50.379Z,6.28
2017-02-19T12:43:50.361Z,6.33
2017-02-19T12:44:50.570Z,6.25
2017-02-19T12:45:50.308Z,6.33
2017-02-19T12:46:49.908Z,6.27
2017-02-19T12:47:49.882Z,6.28
2017-02-19T12:48:49.853Z,6.25
2017-02-19T12:49:50.221Z,6.4
2017-02-19T12:50:50.197Z,6.32
2017-02-19T12:51:50.158Z,6.32
2017-02-19T12:52:50.128Z,6.36
2017-02-19T12:53:50.129Z,6.35
2017-02-19T12:54:50.080Z,6.4
2017-02-19T12:55:50.062Z,6.36
2017-02-19T12:56:50.043Z,6.35
2017-02-19T12:57:49.628Z,6.38
2017-02-19T12:58:50.011Z,6.36
2017-02-19T12:59:49.958Z,6.38
2017-02-19T13:00:49.566Z,6.32
2017-02-19T13:01:49.911Z,6.32
2017-02-19T13:02:49.934Z,6.32
2017-02-19T13:03:49.883Z,6.32
2017-02-19T13:04:49.844Z,6.3
2017-02-19T13:05:49.815Z,6.32
2017-02-19T13:06:49.407Z,6.36
2017-02-19T13:07:49.397Z,6.32
2017-02-19T13:08:49.365Z,6.28
2017-02-19T13:09:49.724Z,6.28
2017-02-19T13:10:49.702Z,6.24
2017-02-19T13:11:49.674Z,6.25
2017-02-19T13:12:49.261Z,6.25
2017-02-19T13:13:49.673Z,6.25
2017-02-19T13:14:49.594Z,6.24
2017-02-19T13:15:49.583Z,6.24
2017-02-19T13:16:49.549Z,6.3
2017-02-19T13:17:49.553Z,6.38
2017-02-19T13:18:49.504Z,6.3
2017-02-19T13:19:49.541Z,6.36
2017-02-19T13:20:49.477Z,6.27
2017-02-19T13:21:49.461Z,6.33